sensor_id;sensor_type;location;lat;lon;timestamp;P1;durP1;ratioP1;P2;durP2;ratioP2
53646;SDS011;39550;52.230;5.194;2022-12-07T00:01:13;9.10;;;4.53;;
53646;SDS011;39550;52.230;5.194;2022-12-07T00:03:41;8.82;;;4.75;;
53646;SDS011;39550;52.230;5.194;2022-12-07T00:06:08;7.45;;;4.28;;
53646;SDS011;39550;52.230;5.194;2022-12-07T00:08:39;7.75;;;4.80;;
53646;SDS011;39550;52.230;5.194;2022-12-07T00:11:06;7.03;;;4.10;;
53646;SDS011;39550;52.230;5.194;2022-12-07T00:13:33;9.25;;;4.78;;
53646;SDS011;39550;52.230;5.194;2022-12-07T00:16:03;7.00;;;4.35;;
53646;SDS011;39550;52.230;5.194;2022-12-07T00:18:30;5.88;;;3.88;;
53646;SDS011;39550;52.230;5.194;2022-12-07T00:21:03;9.48;;;4.78;;
53646;SDS011;39550;52.230;5.194;2022-12-07T00:23:30;6.22;;;4.00;;
53646;SDS011;39550;52.230;5.194;2022-12-07T00:26:02;7.80;;;4.72;;
53646;SDS011;39550;52.230;5.194;2022-12-07T00:28:28;8.98;;;4.45;;
53646;SDS011;39550;52.230;5.194;2022-12-07T00:30:59;8.85;;;4.70;;
53646;SDS011;39550;52.230;5.194;2022-12-07T00:33:29;6.88;;;4.15;;
53646;SDS011;39550;52.230;5.194;2022-12-07T00:35:55;6.80;;;4.13;;
53646;SDS011;39550;52.230;5.194;2022-12-07T00:38:22;6.65;;;3.75;;
53646;SDS011;39550;52.230;5.194;2022-12-07T00:40:53;7.75;;;4.32;;
53646;SDS011;39550;52.230;5.194;2022-12-07T00:43:22;6.50;;;4.03;;
53646;SDS011;39550;52.230;5.194;2022-12-07T00:45:48;6.00;;;3.72;;
53646;SDS011;39550;52.230;5.194;2022-12-07T00:48:13;6.50;;;3.90;;
53646;SDS011;39550;52.230;5.194;2022-12-07T00:50:38;6.85;;;3.78;;
53646;SDS011;39550;52.230;5.194;2022-12-07T00:53:04;6.53;;;3.92;;
53646;SDS011;39550;52.230;5.194;2022-12-07T00:55:32;7.13;;;3.92;;
53646;SDS011;39550;52.230;5.194;2022-12-07T00:57:58;6.30;;;4.07;;
53646;SDS011;39550;52.230;5.194;2022-12-07T01:00:24;6.93;;;4.22;;
53646;SDS011;39550;52.230;5.194;2022-12-07T01:02:49;6.70;;;3.88;;
53646;SDS011;39550;52.230;5.194;2022-12-07T01:05:15;7.07;;;3.70;;
53646;SDS011;39550;52.230;5.194;2022-12-07T01:07:40;6.88;;;4.20;;
53646;SDS011;39550;52.230;5.194;2022-12-07T01:10:06;8.05;;;3.50;;
53646;SDS011;39550;52.230;5.194;2022-12-07T01:12:32;7.30;;;4.07;;
53646;SDS011;39550;52.230;5.194;2022-12-07T01:14:57;6.30;;;3.45;;
53646;SDS011;39550;52.230;5.194;2022-12-07T01:17:23;6.90;;;3.90;;
53646;SDS011;39550;52.230;5.194;2022-12-07T01:19:48;6.72;;;3.65;;
53646;SDS011;39550;52.230;5.194;2022-12-07T01:22:13;6.28;;;4.05;;
53646;SDS011;39550;52.230;5.194;2022-12-07T01:24:39;6.15;;;3.88;;
53646;SDS011;39550;52.230;5.194;2022-12-07T01:27:04;5.82;;;3.85;;
53646;SDS011;39550;52.230;5.194;2022-12-07T01:29:30;6.82;;;3.30;;
53646;SDS011;39550;52.230;5.194;2022-12-07T01:31:55;6.43;;;3.35;;
53646;SDS011;39550;52.230;5.194;2022-12-07T01:34:21;8.73;;;3.65;;
53646;SDS011;39550;52.230;5.194;2022-12-07T01:36:46;6.82;;;3.85;;
53646;SDS011;39550;52.230;5.194;2022-12-07T01:39:12;5.93;;;3.50;;
53646;SDS011;39550;52.230;5.194;2022-12-07T01:41:39;6.85;;;3.90;;
53646;SDS011;39550;52.230;5.194;2022-12-07T01:44:13;6.47;;;3.40;;
53646;SDS011;39550;52.230;5.194;2022-12-07T01:46:39;9.60;;;3.50;;
53646;SDS011;39550;52.230;5.194;2022-12-07T01:49:06;8.98;;;3.65;;
53646;SDS011;39550;52.230;5.194;2022-12-07T01:51:35;7.35;;;3.38;;
53646;SDS011;39550;52.230;5.194;2022-12-07T01:54:04;9.55;;;3.67;;
53646;SDS011;39550;52.230;5.194;2022-12-07T01:56:29;5.82;;;3.67;;
53646;SDS011;39550;52.230;5.194;2022-12-07T01:58:57;7.57;;;3.83;;
53646;SDS011;39550;52.230;5.194;2022-12-07T02:01:25;6.07;;;3.20;;
53646;SDS011;39550;52.230;5.194;2022-12-07T02:03:50;8.77;;;3.85;;
53646;SDS011;39550;52.230;5.194;2022-12-07T02:06:18;6.95;;;3.38;;
53646;SDS011;39550;52.230;5.194;2022-12-07T02:08:47;6.28;;;3.38;;
53646;SDS011;39550;52.230;5.194;2022-12-07T02:11:13;6.18;;;3.30;;
53646;SDS011;39550;52.230;5.194;2022-12-07T02:13:40;5.63;;;3.08;;
53646;SDS011;39550;52.230;5.194;2022-12-07T02:21:27;6.00;;;3.15;;
53646;SDS011;39550;52.230;5.194;2022-12-07T02:30:18;5.68;;;3.28;;
53646;SDS011;39550;52.230;5.194;2022-12-07T02:32:55;5.07;;;2.90;;
53646;SDS011;39550;52.230;5.194;2022-12-07T02:35:39;7.40;;;2.95;;
53646;SDS011;39550;52.230;5.194;2022-12-07T02:40:46;6.45;;;2.85;;
53646;SDS011;39550;52.230;5.194;2022-12-07T02:45:53;6.97;;;3.10;;
53646;SDS011;39550;52.230;5.194;2022-12-07T02:48:24;6.43;;;3.20;;
53646;SDS011;39550;52.230;5.194;2022-12-07T02:50:52;5.65;;;2.83;;
53646;SDS011;39550;52.230;5.194;2022-12-07T02:53:29;5.20;;;2.80;;
53646;SDS011;39550;52.230;5.194;2022-12-07T02:59:08;5.63;;;2.85;;
53646;SDS011;39550;52.230;5.194;2022-12-07T03:07:31;4.75;;;2.75;;
53646;SDS011;39550;52.230;5.194;2022-12-07T03:10:01;4.43;;;2.60;;
53646;SDS011;39550;52.230;5.194;2022-12-07T03:12:29;5.32;;;2.90;;
53646;SDS011;39550;52.230;5.194;2022-12-07T03:15:08;7.03;;;2.60;;
53646;SDS011;39550;52.230;5.194;2022-12-07T03:17:39;4.43;;;2.37;;
53646;SDS011;39550;52.230;5.194;2022-12-07T03:20:09;6.25;;;2.05;;
53646;SDS011;39550;52.230;5.194;2022-12-07T03:22:38;5.32;;;2.63;;
53646;SDS011;39550;52.230;5.194;2022-12-07T03:25:08;5.15;;;2.50;;
53646;SDS011;39550;52.230;5.194;2022-12-07T03:27:43;9.45;;;2.80;;
53646;SDS011;39550;52.230;5.194;2022-12-07T03:30:14;4.82;;;2.65;;
53646;SDS011;39550;52.230;5.194;2022-12-07T03:32:53;4.40;;;2.38;;
53646;SDS011;39550;52.230;5.194;2022-12-07T03:35:29;6.60;;;2.53;;
53646;SDS011;39550;52.230;5.194;2022-12-07T03:43:15;5.82;;;2.33;;
53646;SDS011;39550;52.230;5.194;2022-12-07T03:45:43;5.07;;;2.55;;
53646;SDS011;39550;52.230;5.194;2022-12-07T03:48:25;5.47;;;2.35;;
53646;SDS011;39550;52.230;5.194;2022-12-07T03:51:02;4.10;;;2.40;;
53646;SDS011;39550;52.230;5.194;2022-12-07T03:53:54;5.85;;;2.50;;
53646;SDS011;39550;52.230;5.194;2022-12-07T03:56:27;4.32;;;2.40;;
53646;SDS011;39550;52.230;5.194;2022-12-07T03:58:54;4.55;;;2.92;;
53646;SDS011;39550;52.230;5.194;2022-12-07T04:01:20;6.15;;;2.63;;
53646;SDS011;39550;52.230;5.194;2022-12-07T04:03:48;4.30;;;2.40;;
53646;SDS011;39550;52.230;5.194;2022-12-07T04:06:13;4.90;;;2.53;;
53646;SDS011;39550;52.230;5.194;2022-12-07T04:08:39;4.20;;;2.50;;
53646;SDS011;39550;52.230;5.194;2022-12-07T04:11:04;5.65;;;3.05;;
53646;SDS011;39550;52.230;5.194;2022-12-07T04:13:30;5.40;;;2.90;;
53646;SDS011;39550;52.230;5.194;2022-12-07T04:16:15;4.70;;;2.40;;
53646;SDS011;39550;52.230;5.194;2022-12-07T04:18:41;4.18;;;1.98;;
53646;SDS011;39550;52.230;5.194;2022-12-07T04:21:06;6.78;;;2.88;;
53646;SDS011;39550;52.230;5.194;2022-12-07T04:23:32;5.10;;;2.20;;
53646;SDS011;39550;52.230;5.194;2022-12-07T04:25:57;5.47;;;2.20;;
53646;SDS011;39550;52.230;5.194;2022-12-07T04:28:22;4.97;;;2.30;;
53646;SDS011;39550;52.230;5.194;2022-12-07T04:30:48;5.15;;;2.47;;
53646;SDS011;39550;52.230;5.194;2022-12-07T04:33:13;5.57;;;2.53;;
53646;SDS011;39550;52.230;5.194;2022-12-07T04:35:39;6.32;;;2.35;;
53646;SDS011;39550;52.230;5.194;2022-12-07T04:38:04;3.35;;;1.98;;
53646;SDS011;39550;52.230;5.194;2022-12-07T04:40:30;6.82;;;2.55;;
53646;SDS011;39550;52.230;5.194;2022-12-07T04:42:55;4.88;;;2.20;;
53646;SDS011;39550;52.230;5.194;2022-12-07T04:45:20;3.58;;;1.90;;
53646;SDS011;39550;52.230;5.194;2022-12-07T04:47:46;4.88;;;2.20;;
53646;SDS011;39550;52.230;5.194;2022-12-07T04:50:11;7.40;;;2.38;;
53646;SDS011;39550;52.230;5.194;2022-12-07T04:52:37;7.07;;;2.30;;
53646;SDS011;39550;52.230;5.194;2022-12-07T04:55:02;4.95;;;2.15;;
53646;SDS011;39550;52.230;5.194;2022-12-07T04:57:28;4.32;;;1.98;;
53646;SDS011;39550;52.230;5.194;2022-12-07T04:59:53;5.93;;;2.25;;
53646;SDS011;39550;52.230;5.194;2022-12-07T05:02:19;5.05;;;2.00;;
53646;SDS011;39550;52.230;5.194;2022-12-07T05:04:44;6.70;;;2.15;;
53646;SDS011;39550;52.230;5.194;2022-12-07T05:07:10;4.18;;;2.08;;
53646;SDS011;39550;52.230;5.194;2022-12-07T05:09:35;3.58;;;2.00;;
53646;SDS011;39550;52.230;5.194;2022-12-07T05:12:00;4.45;;;2.55;;
53646;SDS011;39550;52.230;5.194;2022-12-07T05:14:26;4.18;;;1.92;;
53646;SDS011;39550;52.230;5.194;2022-12-07T05:16:51;5.80;;;2.58;;
53646;SDS011;39550;52.230;5.194;2022-12-07T05:19:18;3.47;;;1.70;;
53646;SDS011;39550;52.230;5.194;2022-12-07T05:21:44;3.97;;;1.90;;
53646;SDS011;39550;52.230;5.194;2022-12-07T05:24:11;4.63;;;2.00;;
53646;SDS011;39550;52.230;5.194;2022-12-07T05:26:37;4.70;;;2.10;;
53646;SDS011;39550;52.230;5.194;2022-12-07T05:29:03;5.70;;;2.25;;
53646;SDS011;39550;52.230;5.194;2022-12-07T05:31:29;4.68;;;2.28;;
53646;SDS011;39550;52.230;5.194;2022-12-07T05:33:55;4.50;;;2.20;;
53646;SDS011;39550;52.230;5.194;2022-12-07T05:36:20;7.20;;;2.03;;
53646;SDS011;39550;52.230;5.194;2022-12-07T05:38:46;5.80;;;2.20;;
53646;SDS011;39550;52.230;5.194;2022-12-07T05:41:13;5.50;;;2.00;;
53646;SDS011;39550;52.230;5.194;2022-12-07T05:43:59;3.58;;;1.80;;
53646;SDS011;39550;52.230;5.194;2022-12-07T05:46:32;4.05;;;2.10;;
53646;SDS011;39550;52.230;5.194;2022-12-07T05:49:02;6.78;;;2.25;;
53646;SDS011;39550;52.230;5.194;2022-12-07T05:51:28;3.60;;;2.00;;
53646;SDS011;39550;52.230;5.194;2022-12-07T05:53:54;3.67;;;1.83;;
53646;SDS011;39550;52.230;5.194;2022-12-07T05:56:19;5.20;;;2.40;;
53646;SDS011;39550;52.230;5.194;2022-12-07T05:58:48;4.18;;;1.80;;
53646;SDS011;39550;52.230;5.194;2022-12-07T06:01:32;5.25;;;2.28;;
53646;SDS011;39550;52.230;5.194;2022-12-07T06:03:57;4.30;;;1.88;;
53646;SDS011;39550;52.230;5.194;2022-12-07T06:06:26;4.93;;;2.03;;
53646;SDS011;39550;52.230;5.194;2022-12-07T06:08:54;5.25;;;2.13;;
53646;SDS011;39550;52.230;5.194;2022-12-07T06:11:25;5.10;;;2.00;;
53646;SDS011;39550;52.230;5.194;2022-12-07T06:14:21;6.15;;;2.10;;
53646;SDS011;39550;52.230;5.194;2022-12-07T06:16:46;7.47;;;2.20;;
53646;SDS011;39550;52.230;5.194;2022-12-07T06:19:12;4.28;;;1.90;;
53646;SDS011;39550;52.230;5.194;2022-12-07T06:21:37;5.65;;;1.90;;
53646;SDS011;39550;52.230;5.194;2022-12-07T06:24:03;3.70;;;1.85;;
53646;SDS011;39550;52.230;5.194;2022-12-07T06:26:28;4.47;;;1.98;;
53646;SDS011;39550;52.230;5.194;2022-12-07T06:28:55;4.63;;;2.30;;
53646;SDS011;39550;52.230;5.194;2022-12-07T06:31:20;4.03;;;2.10;;
53646;SDS011;39550;52.230;5.194;2022-12-07T06:33:46;5.22;;;2.00;;
53646;SDS011;39550;52.230;5.194;2022-12-07T06:36:12;4.20;;;2.05;;
53646;SDS011;39550;52.230;5.194;2022-12-07T06:38:37;4.95;;;1.95;;
53646;SDS011;39550;52.230;5.194;2022-12-07T06:41:06;4.78;;;2.42;;
53646;SDS011;39550;52.230;5.194;2022-12-07T06:43:32;4.65;;;2.28;;
53646;SDS011;39550;52.230;5.194;2022-12-07T06:46:00;6.05;;;2.47;;
53646;SDS011;39550;52.230;5.194;2022-12-07T06:48:26;8.68;;;2.50;;
53646;SDS011;39550;52.230;5.194;2022-12-07T06:50:51;5.97;;;2.30;;
53646;SDS011;39550;52.230;5.194;2022-12-07T06:53:17;7.40;;;2.60;;
53646;SDS011;39550;52.230;5.194;2022-12-07T06:55:42;5.47;;;2.45;;
53646;SDS011;39550;52.230;5.194;2022-12-07T06:58:07;6.97;;;3.17;;
53646;SDS011;39550;52.230;5.194;2022-12-07T07:00:33;4.20;;;2.28;;
53646;SDS011;39550;52.230;5.194;2022-12-07T07:03:00;4.35;;;2.35;;
53646;SDS011;39550;52.230;5.194;2022-12-07T07:05:25;6.45;;;2.45;;
53646;SDS011;39550;52.230;5.194;2022-12-07T07:07:51;6.82;;;2.55;;
53646;SDS011;39550;52.230;5.194;2022-12-07T07:10:22;6.38;;;2.40;;
53646;SDS011;39550;52.230;5.194;2022-12-07T07:12:47;6.57;;;2.75;;
53646;SDS011;39550;52.230;5.194;2022-12-07T07:15:13;9.15;;;2.80;;
53646;SDS011;39550;52.230;5.194;2022-12-07T07:17:59;6.20;;;2.42;;
53646;SDS011;39550;52.230;5.194;2022-12-07T07:52:00;6.05;;;2.90;;
53646;SDS011;39550;52.230;5.194;2022-12-07T07:54:25;6.45;;;2.88;;
53646;SDS011;39550;52.230;5.194;2022-12-07T07:56:51;5.70;;;2.90;;
53646;SDS011;39550;52.230;5.194;2022-12-07T07:59:17;5.20;;;2.75;;
53646;SDS011;39550;52.230;5.194;2022-12-07T08:01:42;6.80;;;2.85;;
53646;SDS011;39550;52.230;5.194;2022-12-07T08:04:08;6.72;;;3.42;;
53646;SDS011;39550;52.230;5.194;2022-12-07T08:06:34;5.88;;;2.72;;
53646;SDS011;39550;52.230;5.194;2022-12-07T08:08:59;6.65;;;2.85;;
53646;SDS011;39550;52.230;5.194;2022-12-07T08:11:25;5.05;;;3.00;;
53646;SDS011;39550;52.230;5.194;2022-12-07T08:13:50;5.65;;;2.75;;
53646;SDS011;39550;52.230;5.194;2022-12-07T08:16:15;7.03;;;2.92;;
53646;SDS011;39550;52.230;5.194;2022-12-07T08:18:41;6.70;;;3.17;;
53646;SDS011;39550;52.230;5.194;2022-12-07T08:21:09;9.70;;;3.28;;
53646;SDS011;39550;52.230;5.194;2022-12-07T08:23:36;7.60;;;2.97;;
53646;SDS011;39550;52.230;5.194;2022-12-07T08:26:02;5.55;;;2.60;;
53646;SDS011;39550;52.230;5.194;2022-12-07T08:28:29;6.22;;;3.10;;
53646;SDS011;39550;52.230;5.194;2022-12-07T08:33:35;5.90;;;2.50;;
53646;SDS011;39550;52.230;5.194;2022-12-07T08:36:02;8.27;;;3.00;;
53646;SDS011;39550;52.230;5.194;2022-12-07T08:38:32;6.65;;;2.70;;
53646;SDS011;39550;52.230;5.194;2022-12-07T08:40:59;5.47;;;2.88;;
53646;SDS011;39550;52.230;5.194;2022-12-07T08:43:24;4.93;;;2.80;;
53646;SDS011;39550;52.230;5.194;2022-12-07T08:45:52;4.63;;;2.78;;
53646;SDS011;39550;52.230;5.194;2022-12-07T08:48:25;7.00;;;3.08;;
53646;SDS011;39550;52.230;5.194;2022-12-07T08:50:51;5.00;;;2.67;;
53646;SDS011;39550;52.230;5.194;2022-12-07T08:53:17;5.88;;;2.92;;
53646;SDS011;39550;52.230;5.194;2022-12-07T08:55:43;5.57;;;2.70;;
53646;SDS011;39550;52.230;5.194;2022-12-07T08:58:09;7.05;;;2.65;;
53646;SDS011;39550;52.230;5.194;2022-12-07T09:00:35;7.55;;;2.85;;
53646;SDS011;39550;52.230;5.194;2022-12-07T09:03:00;5.35;;;2.50;;
53646;SDS011;39550;52.230;5.194;2022-12-07T09:05:26;7.60;;;2.70;;
53646;SDS011;39550;52.230;5.194;2022-12-07T09:07:52;7.50;;;3.20;;
53646;SDS011;39550;52.230;5.194;2022-12-07T09:10:22;5.88;;;2.63;;
53646;SDS011;39550;52.230;5.194;2022-12-07T09:12:48;6.78;;;2.50;;
53646;SDS011;39550;52.230;5.194;2022-12-07T09:15:13;5.45;;;2.35;;
53646;SDS011;39550;52.230;5.194;2022-12-07T09:17:40;5.97;;;2.80;;
53646;SDS011;39550;52.230;5.194;2022-12-07T09:20:05;6.20;;;2.72;;
53646;SDS011;39550;52.230;5.194;2022-12-07T09:22:31;4.60;;;2.40;;
53646;SDS011;39550;52.230;5.194;2022-12-07T09:24:57;4.75;;;2.60;;
53646;SDS011;39550;52.230;5.194;2022-12-07T09:27:23;6.60;;;2.80;;
53646;SDS011;39550;52.230;5.194;2022-12-07T09:29:49;4.38;;;2.55;;
53646;SDS011;39550;52.230;5.194;2022-12-07T09:32:14;4.45;;;2.58;;
53646;SDS011;39550;52.230;5.194;2022-12-07T09:34:39;4.75;;;2.40;;
53646;SDS011;39550;52.230;5.194;2022-12-07T09:37:05;6.20;;;2.70;;
53646;SDS011;39550;52.230;5.194;2022-12-07T09:39:31;5.40;;;2.55;;
53646;SDS011;39550;52.230;5.194;2022-12-07T09:41:56;3.78;;;2.17;;
53646;SDS011;39550;52.230;5.194;2022-12-07T09:44:24;5.22;;;2.28;;
53646;SDS011;39550;52.230;5.194;2022-12-07T09:46:50;4.20;;;2.10;;
53646;SDS011;39550;52.230;5.194;2022-12-07T09:49:18;7.28;;;2.65;;
53646;SDS011;39550;52.230;5.194;2022-12-07T09:51:46;4.63;;;2.38;;
53646;SDS011;39550;52.230;5.194;2022-12-07T09:54:13;5.20;;;2.20;;
53646;SDS011;39550;52.230;5.194;2022-12-07T09:56:40;5.50;;;2.20;;
53646;SDS011;39550;52.230;5.194;2022-12-07T09:59:09;5.10;;;2.30;;
53646;SDS011;39550;52.230;5.194;2022-12-07T10:01:40;5.63;;;2.90;;
53646;SDS011;39550;52.230;5.194;2022-12-07T10:06:43;4.97;;;2.42;;
53646;SDS011;39550;52.230;5.194;2022-12-07T10:09:09;4.40;;;2.30;;
53646;SDS011;39550;52.230;5.194;2022-12-07T10:16:54;5.22;;;2.53;;
53646;SDS011;39550;52.230;5.194;2022-12-07T10:19:27;4.03;;;2.20;;
53646;SDS011;39550;52.230;5.194;2022-12-07T10:24:26;5.78;;;2.30;;
53646;SDS011;39550;52.230;5.194;2022-12-07T10:26:51;17.10;;;3.40;;
53646;SDS011;39550;52.230;5.194;2022-12-07T10:29:28;6.85;;;2.90;;
53646;SDS011;39550;52.230;5.194;2022-12-07T10:32:02;7.78;;;3.65;;
53646;SDS011;39550;52.230;5.194;2022-12-07T10:34:36;5.80;;;2.38;;
53646;SDS011;39550;52.230;5.194;2022-12-07T10:37:23;7.18;;;2.60;;
53646;SDS011;39550;52.230;5.194;2022-12-07T10:39:53;5.60;;;2.30;;
53646;SDS011;39550;52.230;5.194;2022-12-07T10:44:45;5.47;;;2.50;;
53646;SDS011;39550;52.230;5.194;2022-12-07T10:47:18;4.75;;;2.50;;
53646;SDS011;39550;52.230;5.194;2022-12-07T10:52:45;4.97;;;2.40;;
53646;SDS011;39550;52.230;5.194;2022-12-07T10:55:17;6.45;;;2.33;;
53646;SDS011;39550;52.230;5.194;2022-12-07T10:58:02;7.68;;;2.38;;
53646;SDS011;39550;52.230;5.194;2022-12-07T11:00:50;5.43;;;2.10;;
53646;SDS011;39550;52.230;5.194;2022-12-07T11:03:31;7.78;;;2.53;;
53646;SDS011;39550;52.230;5.194;2022-12-07T11:11:46;5.50;;;2.30;;
53646;SDS011;39550;52.230;5.194;2022-12-07T11:15:04;4.93;;;2.10;;
53646;SDS011;39550;52.230;5.194;2022-12-07T11:17:17;8.82;;;2.63;;
53646;SDS011;39550;52.230;5.194;2022-12-07T11:20:02;5.20;;;2.33;;
53646;SDS011;39550;52.230;5.194;2022-12-07T11:25:24;6.30;;;2.20;;
53646;SDS011;39550;52.230;5.194;2022-12-07T11:33:47;5.82;;;2.10;;
53646;SDS011;39550;52.230;5.194;2022-12-07T11:36:40;7.40;;;2.60;;
53646;SDS011;39550;52.230;5.194;2022-12-07T11:41:47;7.10;;;2.30;;
53646;SDS011;39550;52.230;5.194;2022-12-07T11:44:26;4.32;;;2.08;;
53646;SDS011;39550;52.230;5.194;2022-12-07T11:47:06;5.85;;;2.35;;
53646;SDS011;39550;52.230;5.194;2022-12-07T11:49:40;4.07;;;2.05;;
53646;SDS011;39550;52.230;5.194;2022-12-07T11:52:23;5.35;;;2.40;;
53646;SDS011;39550;52.230;5.194;2022-12-07T11:54:55;6.72;;;2.20;;
53646;SDS011;39550;52.230;5.194;2022-12-07T11:57:25;4.90;;;2.33;;
53646;SDS011;39550;52.230;5.194;2022-12-07T11:59:59;4.88;;;2.15;;
53646;SDS011;39550;52.230;5.194;2022-12-07T12:02:38;4.90;;;2.28;;
53646;SDS011;39550;52.230;5.194;2022-12-07T12:05:44;4.95;;;2.20;;
53646;SDS011;39550;52.230;5.194;2022-12-07T12:10:54;4.32;;;2.13;;
53646;SDS011;39550;52.230;5.194;2022-12-07T12:21:39;4.78;;;2.25;;
53646;SDS011;39550;52.230;5.194;2022-12-07T12:24:09;4.57;;;2.30;;
53646;SDS011;39550;52.230;5.194;2022-12-07T12:26:48;5.40;;;2.65;;
53646;SDS011;39550;52.230;5.194;2022-12-07T12:33:00;4.20;;;2.20;;
53646;SDS011;39550;52.230;5.194;2022-12-07T12:40:52;4.15;;;2.17;;
53646;SDS011;39550;52.230;5.194;2022-12-07T12:51:46;4.22;;;2.20;;
53646;SDS011;39550;52.230;5.194;2022-12-07T12:54:18;4.05;;;2.40;;
53646;SDS011;39550;52.230;5.194;2022-12-07T12:59:32;4.43;;;2.47;;
53646;SDS011;39550;52.230;5.194;2022-12-07T13:05:35;5.18;;;2.60;;
53646;SDS011;39550;52.230;5.194;2022-12-07T13:08:01;4.05;;;2.28;;
53646;SDS011;39550;52.230;5.194;2022-12-07T13:15:54;4.75;;;2.33;;
53646;SDS011;39550;52.230;5.194;2022-12-07T13:18:38;5.20;;;2.83;;
53646;SDS011;39550;52.230;5.194;2022-12-07T13:26:36;4.07;;;2.15;;
53646;SDS011;39550;52.230;5.194;2022-12-07T13:34:33;3.63;;;1.92;;
53646;SDS011;39550;52.230;5.194;2022-12-07T13:37:27;5.18;;;2.20;;
53646;SDS011;39550;52.230;5.194;2022-12-07T13:39:56;4.68;;;2.15;;
53646;SDS011;39550;52.230;5.194;2022-12-07T13:44:54;4.93;;;2.10;;
53646;SDS011;39550;52.230;5.194;2022-12-07T13:47:26;5.45;;;2.20;;
53646;SDS011;39550;52.230;5.194;2022-12-07T13:49:59;3.92;;;2.03;;
53646;SDS011;39550;52.230;5.194;2022-12-07T13:52:26;4.57;;;2.28;;
53646;SDS011;39550;52.230;5.194;2022-12-07T13:57:32;6.32;;;2.30;;
53646;SDS011;39550;52.230;5.194;2022-12-07T14:00:00;4.20;;;2.25;;
53646;SDS011;39550;52.230;5.194;2022-12-07T14:02:31;4.20;;;2.10;;
53646;SDS011;39550;52.230;5.194;2022-12-07T14:05:13;5.25;;;2.20;;
53646;SDS011;39550;52.230;5.194;2022-12-07T14:10:23;6.53;;;2.28;;
53646;SDS011;39550;52.230;5.194;2022-12-07T14:12:50;6.23;;;2.23;;
53646;SDS011;39550;52.230;5.194;2022-12-07T14:15:20;4.53;;;2.20;;
53646;SDS011;39550;52.230;5.194;2022-12-07T14:17:52;7.22;;;2.47;;
53646;SDS011;39550;52.230;5.194;2022-12-07T14:20:34;5.97;;;2.10;;
53646;SDS011;39550;52.230;5.194;2022-12-07T14:23:02;3.90;;;2.03;;
53646;SDS011;39550;52.230;5.194;2022-12-07T14:26:03;4.38;;;2.28;;
53646;SDS011;39550;52.230;5.194;2022-12-07T14:28:34;4.55;;;2.15;;
53646;SDS011;39550;52.230;5.194;2022-12-07T14:31:01;5.88;;;2.30;;
53646;SDS011;39550;52.230;5.194;2022-12-07T14:33:27;4.55;;;2.10;;
53646;SDS011;39550;52.230;5.194;2022-12-07T14:35:53;4.30;;;2.20;;
53646;SDS011;39550;52.230;5.194;2022-12-07T14:38:23;3.55;;;2.10;;
53646;SDS011;39550;52.230;5.194;2022-12-07T14:40:50;5.00;;;2.30;;
53646;SDS011;39550;52.230;5.194;2022-12-07T14:43:39;3.50;;;1.95;;
53646;SDS011;39550;52.230;5.194;2022-12-07T14:46:05;5.18;;;2.30;;
53646;SDS011;39550;52.230;5.194;2022-12-07T14:48:30;4.45;;;2.22;;
53646;SDS011;39550;52.230;5.194;2022-12-07T14:50:56;4.60;;;2.08;;
53646;SDS011;39550;52.230;5.194;2022-12-07T14:53:23;3.75;;;2.20;;
53646;SDS011;39550;52.230;5.194;2022-12-07T14:55:54;4.68;;;2.10;;
53646;SDS011;39550;52.230;5.194;2022-12-07T14:58:23;4.20;;;2.15;;
53646;SDS011;39550;52.230;5.194;2022-12-07T15:00:49;4.75;;;2.30;;
53646;SDS011;39550;52.230;5.194;2022-12-07T15:03:15;5.70;;;2.30;;
53646;SDS011;39550;52.230;5.194;2022-12-07T15:05:40;3.90;;;2.15;;
53646;SDS011;39550;52.230;5.194;2022-12-07T15:08:08;5.65;;;2.40;;
53646;SDS011;39550;52.230;5.194;2022-12-07T15:10:35;5.45;;;2.75;;
53646;SDS011;39550;52.230;5.194;2022-12-07T15:13:03;4.68;;;2.20;;
53646;SDS011;39550;52.230;5.194;2022-12-07T15:16:02;4.90;;;2.03;;
53646;SDS011;39550;52.230;5.194;2022-12-07T15:18:28;5.57;;;2.38;;
53646;SDS011;39550;52.230;5.194;2022-12-07T15:20:53;4.88;;;2.38;;
53646;SDS011;39550;52.230;5.194;2022-12-07T15:23:26;6.07;;;2.45;;
53646;SDS011;39550;52.230;5.194;2022-12-07T15:26:02;4.00;;;2.30;;
53646;SDS011;39550;52.230;5.194;2022-12-07T15:28:34;4.30;;;2.13;;
53646;SDS011;39550;52.230;5.194;2022-12-07T15:31:12;5.80;;;2.13;;
53646;SDS011;39550;52.230;5.194;2022-12-07T15:33:42;4.88;;;2.40;;
53646;SDS011;39550;52.230;5.194;2022-12-07T15:36:21;6.28;;;2.30;;
53646;SDS011;39550;52.230;5.194;2022-12-07T15:38:49;4.95;;;2.42;;
53646;SDS011;39550;52.230;5.194;2022-12-07T15:41:15;4.05;;;2.20;;
53646;SDS011;39550;52.230;5.194;2022-12-07T15:43:41;4.38;;;2.50;;
53646;SDS011;39550;52.230;5.194;2022-12-07T15:46:29;6.03;;;2.50;;
53646;SDS011;39550;52.230;5.194;2022-12-07T15:49:03;5.07;;;2.47;;
53646;SDS011;39550;52.230;5.194;2022-12-07T15:51:34;5.60;;;2.88;;
53646;SDS011;39550;52.230;5.194;2022-12-07T15:54:00;5.22;;;2.75;;
53646;SDS011;39550;52.230;5.194;2022-12-07T15:56:25;8.48;;;2.83;;
53646;SDS011;39550;52.230;5.194;2022-12-07T15:58:55;7.65;;;2.90;;
53646;SDS011;39550;52.230;5.194;2022-12-07T16:01:24;6.07;;;2.78;;
53646;SDS011;39550;52.230;5.194;2022-12-07T16:03:50;5.88;;;2.58;;
53646;SDS011;39550;52.230;5.194;2022-12-07T16:06:21;4.88;;;2.63;;
53646;SDS011;39550;52.230;5.194;2022-12-07T16:08:47;6.47;;;3.17;;
53646;SDS011;39550;52.230;5.194;2022-12-07T16:11:12;5.90;;;3.00;;
53646;SDS011;39550;52.230;5.194;2022-12-07T16:13:38;5.90;;;2.92;;
53646;SDS011;39550;52.230;5.194;2022-12-07T16:16:05;5.35;;;2.80;;
53646;SDS011;39550;52.230;5.194;2022-12-07T16:18:32;6.55;;;3.08;;
53646;SDS011;39550;52.230;5.194;2022-12-07T16:20:58;5.10;;;2.83;;
53646;SDS011;39550;52.230;5.194;2022-12-07T16:23:32;4.65;;;2.80;;
53646;SDS011;39550;52.230;5.194;2022-12-07T16:26:07;5.28;;;2.85;;
53646;SDS011;39550;52.230;5.194;2022-12-07T16:28:34;7.03;;;3.10;;
53646;SDS011;39550;52.230;5.194;2022-12-07T16:31:22;5.60;;;2.95;;
53646;SDS011;39550;52.230;5.194;2022-12-07T16:33:50;7.80;;;3.55;;
53646;SDS011;39550;52.230;5.194;2022-12-07T16:36:21;9.15;;;3.33;;
53646;SDS011;39550;52.230;5.194;2022-12-07T16:38:49;6.85;;;3.50;;
53646;SDS011;39550;52.230;5.194;2022-12-07T16:41:15;8.18;;;3.38;;
53646;SDS011;39550;52.230;5.194;2022-12-07T16:43:40;8.32;;;3.53;;
53646;SDS011;39550;52.230;5.194;2022-12-07T16:49:04;5.78;;;3.35;;
53646;SDS011;39550;52.230;5.194;2022-12-07T16:52:08;6.97;;;3.30;;
53646;SDS011;39550;52.230;5.194;2022-12-07T16:54:50;6.60;;;3.60;;
53646;SDS011;39550;52.230;5.194;2022-12-07T17:00:14;5.95;;;3.30;;
53646;SDS011;39550;52.230;5.194;2022-12-07T17:05:56;6.90;;;3.90;;
53646;SDS011;39550;52.230;5.194;2022-12-07T17:08:25;8.18;;;4.00;;
53646;SDS011;39550;52.230;5.194;2022-12-07T17:11:01;6.45;;;3.95;;
53646;SDS011;39550;52.230;5.194;2022-12-07T17:13:35;6.63;;;4.28;;
53646;SDS011;39550;52.230;5.194;2022-12-07T17:16:10;10.02;;;4.68;;
53646;SDS011;39550;52.230;5.194;2022-12-07T17:18:36;10.45;;;4.22;;
53646;SDS011;39550;52.230;5.194;2022-12-07T17:21:05;8.75;;;6.03;;
53646;SDS011;39550;52.230;5.194;2022-12-07T17:23:33;9.30;;;4.85;;
53646;SDS011;39550;52.230;5.194;2022-12-07T17:26:04;8.60;;;4.72;;
53646;SDS011;39550;52.230;5.194;2022-12-07T17:28:34;8.73;;;5.32;;
53646;SDS011;39550;52.230;5.194;2022-12-07T17:31:00;8.20;;;5.05;;
53646;SDS011;39550;52.230;5.194;2022-12-07T17:33:25;7.68;;;4.53;;
53646;SDS011;39550;52.230;5.194;2022-12-07T17:35:51;8.13;;;4.90;;
53646;SDS011;39550;52.230;5.194;2022-12-07T17:38:16;8.52;;;4.50;;
53646;SDS011;39550;52.230;5.194;2022-12-07T17:40:41;9.63;;;4.78;;
53646;SDS011;39550;52.230;5.194;2022-12-07T17:43:07;8.60;;;4.63;;
53646;SDS011;39550;52.230;5.194;2022-12-07T17:45:32;10.90;;;5.15;;
53646;SDS011;39550;52.230;5.194;2022-12-07T17:47:57;9.07;;;4.70;;